sensor_id;sensor_type;location;lat;lon;timestamp;P1;durP1;ratioP1;P2;durP2;ratioP2
12165;SDS011;6146;48.128;11.476;2022-09-09T00:00:16;2.50;;;1.70;;
12165;SDS011;6146;48.128;11.476;2022-09-09T00:02:45;1.67;;;1.40;;
12165;SDS011;6146;48.128;11.476;2022-09-09T00:05:38;2.27;;;1.60;;
12165;SDS011;6146;48.128;11.476;2022-09-09T00:08:25;1.60;;;1.50;;
12165;SDS011;6146;48.128;11.476;2022-09-09T00:11:04;2.37;;;2.00;;
12165;SDS011;6146;48.128;11.476;2022-09-09T00:13:37;4.53;;;1.60;;
12165;SDS011;6146;48.128;11.476;2022-09-09T00:21:43;2.10;;;1.50;;
12165;SDS011;6146;48.128;11.476;2022-09-09T00:27:10;1.73;;;1.57;;
12165;SDS011;6146;48.128;11.476;2022-09-09T00:30:12;1.60;;;1.30;;
12165;SDS011;6146;48.128;11.476;2022-09-09T00:32:39;1.30;;;1.20;;
12165;SDS011;6146;48.128;11.476;2022-09-09T00:35:27;2.40;;;1.53;;
12165;SDS011;6146;48.128;11.476;2022-09-09T00:37:56;2.37;;;1.27;;
12165;SDS011;6146;48.128;11.476;2022-09-09T00:40:33;1.60;;;1.40;;
12165;SDS011;6146;48.128;11.476;2022-09-09T00:46:00;2.83;;;1.60;;
12165;SDS011;6146;48.128;11.476;2022-09-09T00:48:35;3.13;;;1.60;;
12165;SDS011;6146;48.128;11.476;2022-09-09T00:51:21;1.50;;;1.40;;
12165;SDS011;6146;48.128;11.476;2022-09-09T00:59:32;2.93;;;1.67;;
12165;SDS011;6146;48.128;11.476;2022-09-09T01:05:13;3.03;;;1.53;;
12165;SDS011;6146;48.128;11.476;2022-09-09T01:08:06;3.80;;;2.00;;
12165;SDS011;6146;48.128;11.476;2022-09-09T01:10:48;1.70;;;1.53;;
12165;SDS011;6146;48.128;11.476;2022-09-09T01:13:25;2.40;;;1.53;;
12165;SDS011;6146;48.128;11.476;2022-09-09T01:15:55;1.90;;;1.50;;
12165;SDS011;6146;48.128;11.476;2022-09-09T01:18:25;3.83;;;2.00;;
12165;SDS011;6146;48.128;11.476;2022-09-09T01:26:11;1.63;;;1.53;;
12165;SDS011;6146;48.128;11.476;2022-09-09T01:28:51;5.40;;;1.97;;
12165;SDS011;6146;48.128;11.476;2022-09-09T01:31:28;1.63;;;1.50;;
12165;SDS011;6146;48.128;11.476;2022-09-09T01:33:57;3.57;;;1.60;;
12165;SDS011;6146;48.128;11.476;2022-09-09T01:36:30;2.20;;;1.40;;
12165;SDS011;6146;48.128;11.476;2022-09-09T01:39:01;2.20;;;1.60;;
12165;SDS011;6146;48.128;11.476;2022-09-09T01:41:27;4.73;;;1.70;;
12165;SDS011;6146;48.128;11.476;2022-09-09T01:43:53;3.33;;;1.80;;
12165;SDS011;6146;48.128;11.476;2022-09-09T01:46:21;2.80;;;1.70;;
12165;SDS011;6146;48.128;11.476;2022-09-09T01:48:48;2.00;;;1.80;;
12165;SDS011;6146;48.128;11.476;2022-09-09T01:51:15;1.57;;;1.47;;
12165;SDS011;6146;48.128;11.476;2022-09-09T01:53:41;2.23;;;1.47;;
12165;SDS011;6146;48.128;11.476;2022-09-09T01:58:57;1.87;;;1.50;;
12165;SDS011;6146;48.128;11.476;2022-09-09T02:04:18;3.67;;;1.60;;
12165;SDS011;6146;48.128;11.476;2022-09-09T02:06:52;2.10;;;1.77;;
12165;SDS011;6146;48.128;11.476;2022-09-09T02:09:23;2.70;;;1.57;;
12165;SDS011;6146;48.128;11.476;2022-09-09T02:11:52;2.20;;;1.40;;
12165;SDS011;6146;48.128;11.476;2022-09-09T02:14:40;2.93;;;1.60;;
12165;SDS011;6146;48.128;11.476;2022-09-09T02:17:10;2.90;;;1.60;;
12165;SDS011;6146;48.128;11.476;2022-09-09T02:19:45;1.83;;;1.67;;
12165;SDS011;6146;48.128;11.476;2022-09-09T02:22:19;2.13;;;1.80;;
12165;SDS011;6146;48.128;11.476;2022-09-09T02:24:47;1.50;;;1.40;;
12165;SDS011;6146;48.128;11.476;2022-09-09T02:27:17;2.03;;;1.50;;
12165;SDS011;6146;48.128;11.476;2022-09-09T02:29:44;2.60;;;1.53;;
12165;SDS011;6146;48.128;11.476;2022-09-09T02:32:13;3.43;;;1.70;;
12165;SDS011;6146;48.128;11.476;2022-09-09T02:34:46;2.00;;;1.50;;
12165;SDS011;6146;48.128;11.476;2022-09-09T02:37:15;1.70;;;1.60;;
12165;SDS011;6146;48.128;11.476;2022-09-09T02:39:44;2.47;;;1.50;;
12165;SDS011;6146;48.128;11.476;2022-09-09T02:42:09;2.23;;;1.43;;
12165;SDS011;6146;48.128;11.476;2022-09-09T02:44:35;2.97;;;1.83;;
12165;SDS011;6146;48.128;11.476;2022-09-09T02:50:22;3.13;;;1.80;;
12165;SDS011;6146;48.128;11.476;2022-09-09T02:55:35;3.43;;;1.90;;
12165;SDS011;6146;48.128;11.476;2022-09-09T02:58:14;2.17;;;1.60;;
12165;SDS011;6146;48.128;11.476;2022-09-09T03:00:42;2.53;;;1.80;;
12165;SDS011;6146;48.128;11.476;2022-09-09T03:03:10;3.10;;;1.77;;
12165;SDS011;6146;48.128;11.476;2022-09-09T03:05:36;1.43;;;1.33;;
12165;SDS011;6146;48.128;11.476;2022-09-09T03:08:02;2.77;;;1.60;;
12165;SDS011;6146;48.128;11.476;2022-09-09T03:10:28;2.30;;;1.70;;
12165;SDS011;6146;48.128;11.476;2022-09-09T03:12:54;3.60;;;1.70;;
12165;SDS011;6146;48.128;11.476;2022-09-09T03:15:20;2.83;;;1.60;;
12165;SDS011;6146;48.128;11.476;2022-09-09T03:17:46;3.53;;;1.77;;
12165;SDS011;6146;48.128;11.476;2022-09-09T03:20:12;2.00;;;1.80;;
12165;SDS011;6146;48.128;11.476;2022-09-09T03:22:38;2.33;;;1.70;;
12165;SDS011;6146;48.128;11.476;2022-09-09T03:25:03;1.97;;;1.77;;
12165;SDS011;6146;48.128;11.476;2022-09-09T03:27:30;2.83;;;1.87;;
12165;SDS011;6146;48.128;11.476;2022-09-09T03:29:56;2.27;;;1.50;;
12165;SDS011;6146;48.128;11.476;2022-09-09T03:32:22;1.90;;;1.60;;
12165;SDS011;6146;48.128;11.476;2022-09-09T03:34:50;2.20;;;1.63;;
12165;SDS011;6146;48.128;11.476;2022-09-09T03:37:17;3.43;;;1.63;;
12165;SDS011;6146;48.128;11.476;2022-09-09T03:39:43;2.50;;;1.40;;
12165;SDS011;6146;48.128;11.476;2022-09-09T03:42:11;2.83;;;1.80;;
12165;SDS011;6146;48.128;11.476;2022-09-09T03:44:39;2.07;;;1.60;;
12165;SDS011;6146;48.128;11.476;2022-09-09T03:47:05;3.63;;;2.13;;
12165;SDS011;6146;48.128;11.476;2022-09-09T03:49:31;3.60;;;1.67;;
12165;SDS011;6146;48.128;11.476;2022-09-09T03:51:56;1.77;;;1.60;;
12165;SDS011;6146;48.128;11.476;2022-09-09T03:54:24;3.13;;;1.77;;
12165;SDS011;6146;48.128;11.476;2022-09-09T03:56:49;3.33;;;1.90;;
12165;SDS011;6146;48.128;11.476;2022-09-09T03:59:15;3.37;;;2.00;;
12165;SDS011;6146;48.128;11.476;2022-09-09T04:01:40;2.80;;;1.80;;
12165;SDS011;6146;48.128;11.476;2022-09-09T04:04:06;3.60;;;2.13;;
12165;SDS011;6146;48.128;11.476;2022-09-09T04:06:32;2.30;;;1.50;;
12165;SDS011;6146;48.128;11.476;2022-09-09T04:08:58;2.53;;;1.50;;
12165;SDS011;6146;48.128;11.476;2022-09-09T04:11:23;2.60;;;2.20;;
12165;SDS011;6146;48.128;11.476;2022-09-09T04:13:49;2.00;;;1.80;;
12165;SDS011;6146;48.128;11.476;2022-09-09T04:16:15;4.77;;;1.77;;
12165;SDS011;6146;48.128;11.476;2022-09-09T04:18:41;3.33;;;1.97;;
12165;SDS011;6146;48.128;11.476;2022-09-09T04:21:08;2.83;;;1.73;;
12165;SDS011;6146;48.128;11.476;2022-09-09T04:23:35;2.20;;;1.90;;
12165;SDS011;6146;48.128;11.476;2022-09-09T04:26:01;3.10;;;1.83;;
12165;SDS011;6146;48.128;11.476;2022-09-09T04:28:29;3.10;;;1.67;;
12165;SDS011;6146;48.128;11.476;2022-09-09T04:30:57;2.10;;;1.90;;
12165;SDS011;6146;48.128;11.476;2022-09-09T04:33:29;1.60;;;1.50;;
12165;SDS011;6146;48.128;11.476;2022-09-09T04:35:56;2.73;;;1.83;;
12165;SDS011;6146;48.128;11.476;2022-09-09T04:38:22;3.53;;;1.53;;
12165;SDS011;6146;48.128;11.476;2022-09-09T04:40:48;1.87;;;1.70;;
12165;SDS011;6146;48.128;11.476;2022-09-09T04:43:15;2.10;;;1.90;;
12165;SDS011;6146;48.128;11.476;2022-09-09T04:45:41;2.13;;;1.47;;
12165;SDS011;6146;48.128;11.476;2022-09-09T04:48:07;3.30;;;1.50;;
12165;SDS011;6146;48.128;11.476;2022-09-09T04:50:34;2.50;;;1.60;;
12165;SDS011;6146;48.128;11.476;2022-09-09T04:53:03;1.87;;;1.40;;
12165;SDS011;6146;48.128;11.476;2022-09-09T04:55:30;2.00;;;1.80;;
12165;SDS011;6146;48.128;11.476;2022-09-09T04:57:56;2.80;;;1.70;;
12165;SDS011;6146;48.128;11.476;2022-09-09T05:00:25;2.00;;;1.73;;
12165;SDS011;6146;48.128;11.476;2022-09-09T05:02:50;1.93;;;1.73;;
12165;SDS011;6146;48.128;11.476;2022-09-09T05:05:16;1.60;;;1.50;;
12165;SDS011;6146;48.128;11.476;2022-09-09T05:07:43;2.90;;;1.80;;
12165;SDS011;6146;48.128;11.476;2022-09-09T05:10:09;3.93;;;1.77;;
12165;SDS011;6146;48.128;11.476;2022-09-09T05:12:35;2.30;;;1.80;;
12165;SDS011;6146;48.128;11.476;2022-09-09T05:15:01;1.90;;;1.70;;
12165;SDS011;6146;48.128;11.476;2022-09-09T05:17:27;3.07;;;1.70;;
12165;SDS011;6146;48.128;11.476;2022-09-09T05:19:52;2.03;;;1.70;;
12165;SDS011;6146;48.128;11.476;2022-09-09T05:22:21;1.97;;;1.67;;
12165;SDS011;6146;48.128;11.476;2022-09-09T05:24:48;1.90;;;1.70;;
12165;SDS011;6146;48.128;11.476;2022-09-09T05:27:15;2.03;;;1.73;;
12165;SDS011;6146;48.128;11.476;2022-09-09T05:29:43;2.67;;;1.63;;
12165;SDS011;6146;48.128;11.476;2022-09-09T05:32:09;2.07;;;1.60;;
12165;SDS011;6146;48.128;11.476;2022-09-09T05:34:35;2.37;;;2.00;;
12165;SDS011;6146;48.128;11.476;2022-09-09T05:37:02;2.37;;;1.73;;
12165;SDS011;6146;48.128;11.476;2022-09-09T05:39:28;2.63;;;1.60;;
12165;SDS011;6146;48.128;11.476;2022-09-09T05:41:53;2.27;;;1.80;;
12165;SDS011;6146;48.128;11.476;2022-09-09T05:44:20;2.90;;;1.63;;
12165;SDS011;6146;48.128;11.476;2022-09-09T05:46:48;2.23;;;1.47;;
12165;SDS011;6146;48.128;11.476;2022-09-09T05:49:14;3.23;;;1.77;;
12165;SDS011;6146;48.128;11.476;2022-09-09T05:51:40;2.40;;;1.53;;
12165;SDS011;6146;48.128;11.476;2022-09-09T05:54:07;2.03;;;1.43;;
12165;SDS011;6146;48.128;11.476;2022-09-09T05:56:33;1.97;;;1.37;;
12165;SDS011;6146;48.128;11.476;2022-09-09T05:58:59;2.57;;;1.77;;
12165;SDS011;6146;48.128;11.476;2022-09-09T06:01:26;2.23;;;1.50;;
12165;SDS011;6146;48.128;11.476;2022-09-09T06:03:56;2.10;;;1.50;;
12165;SDS011;6146;48.128;11.476;2022-09-09T06:06:23;2.77;;;1.90;;
12165;SDS011;6146;48.128;11.476;2022-09-09T06:08:55;1.83;;;1.50;;
12165;SDS011;6146;48.128;11.476;2022-09-09T06:11:25;2.67;;;1.63;;
12165;SDS011;6146;48.128;11.476;2022-09-09T06:13:52;2.73;;;1.47;;
12165;SDS011;6146;48.128;11.476;2022-09-09T06:16:20;1.50;;;1.40;;
12165;SDS011;6146;48.128;11.476;2022-09-09T06:18:50;2.17;;;1.40;;
12165;SDS011;6146;48.128;11.476;2022-09-09T06:21:17;1.90;;;1.60;;
12165;SDS011;6146;48.128;11.476;2022-09-09T06:23:45;1.60;;;1.50;;
12165;SDS011;6146;48.128;11.476;2022-09-09T06:26:13;2.10;;;1.23;;
12165;SDS011;6146;48.128;11.476;2022-09-09T06:28:43;2.43;;;1.50;;
12165;SDS011;6146;48.128;11.476;2022-09-09T06:31:13;2.23;;;1.40;;
12165;SDS011;6146;48.128;11.476;2022-09-09T06:33:42;2.80;;;1.70;;
12165;SDS011;6146;48.128;11.476;2022-09-09T06:36:12;2.40;;;1.33;;
12165;SDS011;6146;48.128;11.476;2022-09-09T06:38:40;2.20;;;2.00;;
12165;SDS011;6146;48.128;11.476;2022-09-09T06:41:09;1.50;;;1.27;;
12165;SDS011;6146;48.128;11.476;2022-09-09T06:43:36;1.80;;;1.37;;
12165;SDS011;6146;48.128;11.476;2022-09-09T06:48:30;1.63;;;1.43;;
12165;SDS011;6146;48.128;11.476;2022-09-09T06:53:32;2.30;;;1.50;;
12165;SDS011;6146;48.128;11.476;2022-09-09T06:56:02;1.97;;;1.50;;
12165;SDS011;6146;48.128;11.476;2022-09-09T06:58:48;2.63;;;1.63;;
12165;SDS011;6146;48.128;11.476;2022-09-09T07:01:16;2.93;;;1.50;;
12165;SDS011;6146;48.128;11.476;2022-09-09T07:03:45;1.93;;;1.70;;
12165;SDS011;6146;48.128;11.476;2022-09-09T07:06:14;1.70;;;1.40;;
12165;SDS011;6146;48.128;11.476;2022-09-09T07:08:42;3.17;;;1.50;;
12165;SDS011;6146;48.128;11.476;2022-09-09T07:11:08;2.53;;;1.50;;
12165;SDS011;6146;48.128;11.476;2022-09-09T07:13:34;2.30;;;1.57;;
12165;SDS011;6146;48.128;11.476;2022-09-09T07:16:10;1.73;;;1.40;;
12165;SDS011;6146;48.128;11.476;2022-09-09T07:18:38;2.00;;;1.70;;
12165;SDS011;6146;48.128;11.476;2022-09-09T07:21:05;2.47;;;1.47;;
12165;SDS011;6146;48.128;11.476;2022-09-09T07:23:31;2.10;;;1.30;;
12165;SDS011;6146;48.128;11.476;2022-09-09T07:25:57;2.80;;;1.47;;
12165;SDS011;6146;48.128;11.476;2022-09-09T07:28:23;1.70;;;1.50;;
12165;SDS011;6146;48.128;11.476;2022-09-09T07:33:22;3.57;;;1.57;;
12165;SDS011;6146;48.128;11.476;2022-09-09T07:35:49;2.57;;;1.47;;
12165;SDS011;6146;48.128;11.476;2022-09-09T07:38:15;1.17;;;1.07;;
12165;SDS011;6146;48.128;11.476;2022-09-09T07:40:41;3.17;;;1.30;;
12165;SDS011;6146;48.128;11.476;2022-09-09T07:43:06;1.63;;;1.30;;
12165;SDS011;6146;48.128;11.476;2022-09-09T07:45:32;3.30;;;1.37;;
12165;SDS011;6146;48.128;11.476;2022-09-09T07:47:59;1.70;;;1.10;;
12165;SDS011;6146;48.128;11.476;2022-09-09T07:50:25;2.77;;;1.33;;
12165;SDS011;6146;48.128;11.476;2022-09-09T07:52:51;1.97;;;1.30;;
12165;SDS011;6146;48.128;11.476;2022-09-09T07:55:18;1.50;;;1.33;;
12165;SDS011;6146;48.128;11.476;2022-09-09T07:57:44;2.80;;;1.30;;
12165;SDS011;6146;48.128;11.476;2022-09-09T08:00:10;2.03;;;1.20;;
12165;SDS011;6146;48.128;11.476;2022-09-09T08:02:36;3.33;;;1.50;;
12165;SDS011;6146;48.128;11.476;2022-09-09T08:05:02;1.50;;;1.40;;
12165;SDS011;6146;48.128;11.476;2022-09-09T08:07:28;1.30;;;1.20;;
12165;SDS011;6146;48.128;11.476;2022-09-09T08:09:54;3.00;;;1.60;;
12165;SDS011;6146;48.128;11.476;2022-09-09T08:12:20;1.57;;;1.30;;
12165;SDS011;6146;48.128;11.476;2022-09-09T08:14:46;2.60;;;1.40;;
12165;SDS011;6146;48.128;11.476;2022-09-09T08:17:13;3.27;;;1.37;;
12165;SDS011;6146;48.128;11.476;2022-09-09T08:19:39;1.20;;;1.10;;
12165;SDS011;6146;48.128;11.476;2022-09-09T08:22:04;1.30;;;1.20;;
12165;SDS011;6146;48.128;11.476;2022-09-09T08:24:30;2.13;;;1.30;;
12165;SDS011;6146;48.128;11.476;2022-09-09T08:26:56;2.03;;;1.30;;
12165;SDS011;6146;48.128;11.476;2022-09-09T08:29:22;2.57;;;1.40;;
12165;SDS011;6146;48.128;11.476;2022-09-09T08:31:51;3.00;;;1.60;;
12165;SDS011;6146;48.128;11.476;2022-09-09T08:34:19;2.63;;;1.40;;
12165;SDS011;6146;48.128;11.476;2022-09-09T08:36:46;1.90;;;1.53;;
12165;SDS011;6146;48.128;11.476;2022-09-09T08:39:15;1.77;;;1.60;;
12165;SDS011;6146;48.128;11.476;2022-09-09T08:52:41;1.23;;;1.03;;
12165;SDS011;6146;48.128;11.476;2022-09-09T08:57:38;1.17;;;1.10;;
12165;SDS011;6146;48.128;11.476;2022-09-09T09:00:04;1.47;;;0.93;;
12165;SDS011;6146;48.128;11.476;2022-09-09T09:06:13;1.30;;;1.20;;
12165;SDS011;6146;48.128;11.476;2022-09-09T09:08:27;1.30;;;0.93;;
12165;SDS011;6146;48.128;11.476;2022-09-09T09:11:37;1.40;;;0.90;;
12165;SDS011;6146;48.128;11.476;2022-09-09T09:16:38;3.43;;;1.40;;
12165;SDS011;6146;48.128;11.476;2022-09-09T09:19:08;1.43;;;1.33;;
12165;SDS011;6146;48.128;11.476;2022-09-09T09:21:43;1.93;;;1.33;;
12165;SDS011;6146;48.128;11.476;2022-09-09T09:24:20;1.93;;;1.40;;
12165;SDS011;6146;48.128;11.476;2022-09-09T09:26:49;3.80;;;1.30;;
12165;SDS011;6146;48.128;11.476;2022-09-09T09:29:16;2.80;;;1.37;;
12165;SDS011;6146;48.128;11.476;2022-09-09T09:31:48;3.03;;;1.50;;
12165;SDS011;6146;48.128;11.476;2022-09-09T09:34:23;2.00;;;1.40;;
12165;SDS011;6146;48.128;11.476;2022-09-09T09:36:53;2.20;;;1.23;;
12165;SDS011;6146;48.128;11.476;2022-09-09T09:39:31;3.10;;;1.40;;
12165;SDS011;6146;48.128;11.476;2022-09-09T09:42:09;3.20;;;1.57;;
12165;SDS011;6146;48.128;11.476;2022-09-09T09:44:39;2.60;;;1.63;;
12165;SDS011;6146;48.128;11.476;2022-09-09T09:47:23;1.63;;;1.30;;
12165;SDS011;6146;48.128;11.476;2022-09-09T09:52:20;1.73;;;1.20;;
12165;SDS011;6146;48.128;11.476;2022-09-09T09:54:50;2.53;;;1.70;;
12165;SDS011;6146;48.128;11.476;2022-09-09T09:57:18;1.87;;;1.20;;
12165;SDS011;6146;48.128;11.476;2022-09-09T10:00:27;2.47;;;1.40;;
12165;SDS011;6146;48.128;11.476;2022-09-09T10:02:47;3.07;;;1.80;;
12165;SDS011;6146;48.128;11.476;2022-09-09T10:05:21;2.07;;;1.60;;
12165;SDS011;6146;48.128;11.476;2022-09-09T10:10:40;3.37;;;1.80;;
12165;SDS011;6146;48.128;11.476;2022-09-09T10:24:27;5.50;;;2.30;;
12165;SDS011;6146;48.128;11.476;2022-09-09T10:30:12;1.73;;;1.63;;
12165;SDS011;6146;48.128;11.476;2022-09-09T10:35:34;1.40;;;1.30;;
12165;SDS011;6146;48.128;11.476;2022-09-09T10:40:46;2.73;;;1.30;;
12165;SDS011;6146;48.128;11.476;2022-09-09T10:43:28;2.43;;;1.47;;
12165;SDS011;6146;48.128;11.476;2022-09-09T10:49:13;1.90;;;1.70;;
12165;SDS011;6146;48.128;11.476;2022-09-09T10:57:25;1.23;;;1.13;;
12165;SDS011;6146;48.128;11.476;2022-09-09T11:00:06;1.30;;;1.20;;
12165;SDS011;6146;48.128;11.476;2022-09-09T11:02:41;1.20;;;1.10;;
12165;SDS011;6146;48.128;11.476;2022-09-09T11:05:20;1.33;;;1.17;;
12165;SDS011;6146;48.128;11.476;2022-09-09T11:07:56;1.20;;;1.10;;
12165;SDS011;6146;48.128;11.476;2022-09-09T11:10:30;1.20;;;1.07;;
12165;SDS011;6146;48.128;11.476;2022-09-09T11:13:24;1.37;;;1.00;;
12165;SDS011;6146;48.128;11.476;2022-09-09T11:16:19;1.30;;;1.20;;
12165;SDS011;6146;48.128;11.476;2022-09-09T11:18:58;1.63;;;1.00;;
12165;SDS011;6146;48.128;11.476;2022-09-09T11:21:35;2.07;;;1.00;;
12165;SDS011;6146;48.128;11.476;2022-09-09T11:24:49;1.53;;;0.90;;
12165;SDS011;6146;48.128;11.476;2022-09-09T11:30:02;2.10;;;1.13;;
12165;SDS011;6146;48.128;11.476;2022-09-09T11:32:54;1.73;;;1.03;;
12165;SDS011;6146;48.128;11.476;2022-09-09T11:40:44;1.20;;;1.10;;
12165;SDS011;6146;48.128;11.476;2022-09-09T11:43:12;1.50;;;1.20;;
12165;SDS011;6146;48.128;11.476;2022-09-09T11:45:52;1.23;;;1.13;;
12165;SDS011;6146;48.128;11.476;2022-09-09T11:51:02;1.47;;;1.00;;
12165;SDS011;6146;48.128;11.476;2022-09-09T11:53:35;1.70;;;1.10;;
12165;SDS011;6146;48.128;11.476;2022-09-09T11:56:32;1.73;;;0.97;;
12165;SDS011;6146;48.128;11.476;2022-09-09T11:59:19;1.90;;;1.13;;
12165;SDS011;6146;48.128;11.476;2022-09-09T12:01:57;1.07;;;1.00;;
12165;SDS011;6146;48.128;11.476;2022-09-09T12:09:29;1.03;;;1.00;;
12165;SDS011;6146;48.128;11.476;2022-09-09T12:12:24;1.07;;;0.97;;
12165;SDS011;6146;48.128;11.476;2022-09-09T12:17:46;1.37;;;0.90;;
12165;SDS011;6146;48.128;11.476;2022-09-09T12:28:17;2.47;;;1.00;;
12165;SDS011;6146;48.128;11.476;2022-09-09T12:30:49;1.67;;;1.00;;
12165;SDS011;6146;48.128;11.476;2022-09-09T12:33:32;1.33;;;0.90;;
12165;SDS011;6146;48.128;11.476;2022-09-09T12:35:59;2.97;;;1.00;;
12165;SDS011;6146;48.128;11.476;2022-09-09T12:41:04;1.57;;;1.17;;
12165;SDS011;6146;48.128;11.476;2022-09-09T12:43:30;2.50;;;1.20;;
12165;SDS011;6146;48.128;11.476;2022-09-09T12:46:02;2.03;;;1.20;;
12165;SDS011;6146;48.128;11.476;2022-09-09T12:48:35;1.00;;;0.90;;
12165;SDS011;6146;48.128;11.476;2022-09-09T12:51:06;1.47;;;0.80;;
12165;SDS011;6146;48.128;11.476;2022-09-09T12:53:43;1.33;;;1.00;;
12165;SDS011;6146;48.128;11.476;2022-09-09T12:56:19;0.77;;;0.77;;
12165;SDS011;6146;48.128;11.476;2022-09-09T12:58:51;1.67;;;1.00;;
12165;SDS011;6146;48.128;11.476;2022-09-09T13:01:23;1.83;;;1.00;;
12165;SDS011;6146;48.128;11.476;2022-09-09T13:03:50;1.50;;;1.00;;
12165;SDS011;6146;48.128;11.476;2022-09-09T13:06:20;1.30;;;1.00;;
12165;SDS011;6146;48.128;11.476;2022-09-09T13:08:47;1.07;;;0.97;;
12165;SDS011;6146;48.128;11.476;2022-09-09T13:11:16;2.10;;;1.10;;
12165;SDS011;6146;48.128;11.476;2022-09-09T13:13:51;1.40;;;1.00;;
12165;SDS011;6146;48.128;11.476;2022-09-09T13:16:20;0.93;;;0.93;;
12165;SDS011;6146;48.128;11.476;2022-09-09T13:18:56;1.17;;;0.80;;
12165;SDS011;6146;48.128;11.476;2022-09-09T13:21:36;0.63;;;0.63;;
12165;SDS011;6146;48.128;11.476;2022-09-09T13:24:06;1.20;;;1.00;;
12165;SDS011;6146;48.128;11.476;2022-09-09T13:29:51;0.77;;;0.70;;
12165;SDS011;6146;48.128;11.476;2022-09-09T13:32:21;2.37;;;1.17;;
12165;SDS011;6146;48.128;11.476;2022-09-09T13:34:56;2.27;;;1.30;;
12165;SDS011;6146;48.128;11.476;2022-09-09T13:37:44;1.40;;;1.07;;
12165;SDS011;6146;48.128;11.476;2022-09-09T13:40:16;2.10;;;0.90;;
12165;SDS011;6146;48.128;11.476;2022-09-09T13:42:44;1.13;;;1.00;;
12165;SDS011;6146;48.128;11.476;2022-09-09T13:45:20;1.97;;;1.17;;
12165;SDS011;6146;48.128;11.476;2022-09-09T13:47:48;0.70;;;0.70;;
12165;SDS011;6146;48.128;11.476;2022-09-09T13:50:27;1.17;;;0.80;;
12165;SDS011;6146;48.128;11.476;2022-09-09T13:55:29;0.80;;;0.70;;
12165;SDS011;6146;48.128;11.476;2022-09-09T14:00:20;1.37;;;1.20;;
12165;SDS011;6146;48.128;11.476;2022-09-09T14:02:47;1.17;;;1.07;;
12165;SDS011;6146;48.128;11.476;2022-09-09T14:05:14;1.30;;;0.97;;
12165;SDS011;6146;48.128;11.476;2022-09-09T14:07:40;1.30;;;1.10;;
12165;SDS011;6146;48.128;11.476;2022-09-09T14:10:07;1.83;;;1.00;;
12165;SDS011;6146;48.128;11.476;2022-09-09T14:12:33;1.70;;;1.00;;
12165;SDS011;6146;48.128;11.476;2022-09-09T14:15:00;0.90;;;0.90;;
12165;SDS011;6146;48.128;11.476;2022-09-09T14:17:26;1.00;;;0.80;;
12165;SDS011;6146;48.128;11.476;2022-09-09T14:19:54;0.90;;;0.90;;
12165;SDS011;6146;48.128;11.476;2022-09-09T14:22:20;1.77;;;1.00;;
12165;SDS011;6146;48.128;11.476;2022-09-09T14:24:46;1.90;;;1.03;;
12165;SDS011;6146;48.128;11.476;2022-09-09T14:27:12;1.13;;;1.03;;
12165;SDS011;6146;48.128;11.476;2022-09-09T14:29:37;3.27;;;1.13;;
12165;SDS011;6146;48.128;11.476;2022-09-09T14:32:03;2.50;;;1.10;;
12165;SDS011;6146;48.128;11.476;2022-09-09T14:34:29;1.90;;;1.10;;
12165;SDS011;6146;48.128;11.476;2022-09-09T14:36:57;2.00;;;1.07;;
12165;SDS011;6146;48.128;11.476;2022-09-09T14:39:23;2.23;;;1.20;;
12165;SDS011;6146;48.128;11.476;2022-09-09T14:41:49;1.80;;;1.13;;
12165;SDS011;6146;48.128;11.476;2022-09-09T14:44:14;1.57;;;1.10;;
12165;SDS011;6146;48.128;11.476;2022-09-09T14:46:41;2.23;;;1.50;;
12165;SDS011;6146;48.128;11.476;2022-09-09T14:49:07;1.33;;;1.00;;
12165;SDS011;6146;48.128;11.476;2022-09-09T14:51:35;1.30;;;1.20;;
12165;SDS011;6146;48.128;11.476;2022-09-09T14:54:02;1.77;;;1.17;;
12165;SDS011;6146;48.128;11.476;2022-09-09T14:56:28;2.43;;;1.30;;
12165;SDS011;6146;48.128;11.476;2022-09-09T14:58:56;3.87;;;1.00;;
12165;SDS011;6146;48.128;11.476;2022-09-09T15:01:23;1.73;;;1.10;;
12165;SDS011;6146;48.128;11.476;2022-09-09T15:06:23;1.83;;;1.00;;
12165;SDS011;6146;48.128;11.476;2022-09-09T15:08:50;1.60;;;1.13;;
12165;SDS011;6146;48.128;11.476;2022-09-09T15:11:17;2.77;;;1.03;;
12165;SDS011;6146;48.128;11.476;2022-09-09T15:13:44;1.97;;;1.20;;
12165;SDS011;6146;48.128;11.476;2022-09-09T15:16:13;2.27;;;1.00;;
12165;SDS011;6146;48.128;11.476;2022-09-09T15:18:40;1.43;;;1.10;;
12165;SDS011;6146;48.128;11.476;2022-09-09T15:21:13;1.20;;;1.10;;
12165;SDS011;6146;48.128;11.476;2022-09-09T15:23:44;0.97;;;0.90;;
12165;SDS011;6146;48.128;11.476;2022-09-09T15:26:10;1.57;;;1.00;;
12165;SDS011;6146;48.128;11.476;2022-09-09T15:28:39;1.80;;;1.10;;
12165;SDS011;6146;48.128;11.476;2022-09-09T15:31:11;2.77;;;1.70;;
12165;SDS011;6146;48.128;11.476;2022-09-09T15:34:17;2.93;;;1.50;;
12165;SDS011;6146;48.128;11.476;2022-09-09T15:36:37;1.03;;;0.90;;
12165;SDS011;6146;48.128;11.476;2022-09-09T15:39:05;2.33;;;1.10;;
12165;SDS011;6146;48.128;11.476;2022-09-09T15:41:34;1.30;;;1.10;;
12165;SDS011;6146;48.128;11.476;2022-09-09T15:44:00;2.37;;;1.10;;
12165;SDS011;6146;48.128;11.476;2022-09-09T15:46:31;1.13;;;1.03;;
12165;SDS011;6146;48.128;11.476;2022-09-09T15:49:18;2.47;;;1.10;;
12165;SDS011;6146;48.128;11.476;2022-09-09T15:51:45;1.83;;;1.00;;
12165;SDS011;6146;48.128;11.476;2022-09-09T15:54:14;2.57;;;1.37;;
12165;SDS011;6146;48.128;11.476;2022-09-09T15:56:45;1.10;;;1.00;;
12165;SDS011;6146;48.128;11.476;2022-09-09T15:59:13;1.90;;;1.03;;
12165;SDS011;6146;48.128;11.476;2022-09-09T16:01:39;2.57;;;1.27;;
12165;SDS011;6146;48.128;11.476;2022-09-09T16:04:05;1.60;;;1.00;;
12165;SDS011;6146;48.128;11.476;2022-09-09T16:06:31;1.97;;;1.13;;
12165;SDS011;6146;48.128;11.476;2022-09-09T16:08:58;2.27;;;1.20;;
12165;SDS011;6146;48.128;11.476;2022-09-09T16:11:27;1.97;;;1.17;;
12165;SDS011;6146;48.128;11.476;2022-09-09T16:13:56;2.77;;;1.30;;
12165;SDS011;6146;48.128;11.476;2022-09-09T16:16:23;1.90;;;1.30;;
12165;SDS011;6146;48.128;11.476;2022-09-09T16:18:51;3.33;;;1.40;;
12165;SDS011;6146;48.128;11.476;2022-09-09T16:21:23;1.63;;;1.10;;
12165;SDS011;6146;48.128;11.476;2022-09-09T16:23:51;1.27;;;1.13;;
12165;SDS011;6146;48.128;11.476;2022-09-09T16:26:18;1.80;;;1.10;;
12165;SDS011;6146;48.128;11.476;2022-09-09T16:28:44;3.40;;;1.40;;
12165;SDS011;6146;48.128;11.476;2022-09-09T16:31:13;4.33;;;1.37;;
12165;SDS011;6146;48.128;11.476;2022-09-09T16:33:43;2.70;;;1.17;;
12165;SDS011;6146;48.128;11.476;2022-09-09T16:36:10;1.17;;;0.90;;
12165;SDS011;6146;48.128;11.476;2022-09-09T16:38:37;1.27;;;1.00;;
12165;SDS011;6146;48.128;11.476;2022-09-09T16:41:04;1.60;;;1.07;;
12165;SDS011;6146;48.128;11.476;2022-09-09T16:43:31;1.10;;;1.00;;
12165;SDS011;6146;48.128;11.476;2022-09-09T16:45:57;1.77;;;1.20;;
12165;SDS011;6146;48.128;11.476;2022-09-09T16:48:25;2.20;;;1.20;;
12165;SDS011;6146;48.128;11.476;2022-09-09T16:51:04;2.33;;;1.10;;
12165;SDS011;6146;48.128;11.476;2022-09-09T16:53:32;2.90;;;1.40;;
12165;SDS011;6146;48.128;11.476;2022-09-09T16:55:58;2.00;;;1.30;;
12165;SDS011;6146;48.128;11.476;2022-09-09T16:58:33;1.80;;;1.30;;
12165;SDS011;6146;48.128;11.476;2022-09-09T17:00:59;1.67;;;1.50;;
12165;SDS011;6146;48.128;11.476;2022-09-09T17:03:26;2.50;;;1.20;;
12165;SDS011;6146;48.128;11.476;2022-09-09T17:05:52;1.50;;;1.20;;
12165;SDS011;6146;48.128;11.476;2022-09-09T17:08:18;2.23;;;1.20;;
12165;SDS011;6146;48.128;11.476;2022-09-09T17:10:43;3.00;;;1.40;;
12165;SDS011;6146;48.128;11.476;2022-09-09T17:13:09;2.57;;;1.30;;
12165;SDS011;6146;48.128;11.476;2022-09-09T17:15:41;1.60;;;1.30;;
12165;SDS011;6146;48.128;11.476;2022-09-09T17:18:08;1.33;;;1.20;;
12165;SDS011;6146;48.128;11.476;2022-09-09T17:20:37;2.13;;;1.50;;
12165;SDS011;6146;48.128;11.476;2022-09-09T17:23:05;2.30;;;1.60;;